Alba, Illinois
Current Conditions -  °F | °C
As of 1:08 AM on Saturday 25 Oct 2014 (Local Time) from KMLI Reporting Station
Moderate Fog Moderate Fog  
Wind Chill: 53°   Ceiling: 400
Heat Index: 53°   Visibility: 0.25mi
Dew Point: 52°   Wind: 3mph
Humidity: 96%   Direction: 280°W
Pressure: 29.94"   Gusts: NA
Location:  41.4097°N, 90.0293°W
Report Text: KMLI 250608Z AUTO 28003KT 1/4SM R09/2400VP6000FT FG VV004 12/11 A2994 RMK AO2 T01170111
Loading
Personal Weather Stations






























Interactive Weather Map
Tropical Storm Tracking
New forecast layout! Learn more

10-Day Weather Forecast

Advertisements
Track Severe Weather on mobile